sensor_id;sensor_type;location;lat;lon;timestamp;pressure;altitude;pressure_sealevel;temperature;humidity
5053;BME280;2545;50.892;5.740;2023-09-19T00:01:28;56061.09;;;-142.21;74.38
5053;BME280;2545;50.892;5.740;2023-09-19T00:03:55;56070.91;;;-142.21;74.37
5053;BME280;2545;50.892;5.740;2023-09-19T00:06:22;56068.94;;;-142.21;75.32
5053;BME280;2545;50.892;5.740;2023-09-19T00:08:51;56088.56;;;-142.21;75.22
5053;BME280;2545;50.892;5.740;2023-09-19T00:11:16;56049.34;;;-142.21;76.79
5053;BME280;2545;50.892;5.740;2023-09-19T00:13:41;56061.09;;;-142.21;76.05
5053;BME280;2545;50.892;5.740;2023-09-19T00:16:09;56067.00;;;-142.21;76.19
5053;BME280;2545;50.892;5.740;2023-09-19T00:18:38;56057.19;;;-142.21;75.78
5053;BME280;2545;50.892;5.740;2023-09-19T00:21:03;56110.13;;;-142.21;76.51
5053;BME280;2545;50.892;5.740;2023-09-19T00:23:32;56053.25;;;-142.21;76.46
5053;BME280;2545;50.892;5.740;2023-09-19T00:25:59;56074.84;;;-142.21;75.64
5053;BME280;2545;50.892;5.740;2023-09-19T00:28:24;56055.22;;;-142.21;75.48
5053;BME280;2545;50.892;5.740;2023-09-19T00:30:50;56100.31;;;-142.21;75.35
5053;BME280;2545;50.892;5.740;2023-09-19T00:33:15;56090.53;;;-142.21;75.11
5053;BME280;2545;50.892;5.740;2023-09-19T00:35:51;56059.16;;;-142.21;74.68
5053;BME280;2545;50.892;5.740;2023-09-19T00:38:18;56041.50;;;-142.21;74.34
5053;BME280;2545;50.892;5.740;2023-09-19T00:40:49;56078.75;;;-142.21;73.91
5053;BME280;2545;50.892;5.740;2023-09-19T00:43:16;56057.19;;;-142.21;73.61
5053;BME280;2545;50.892;5.740;2023-09-19T00:45:44;56059.16;;;-142.21;74.09
5053;BME280;2545;50.892;5.740;2023-09-19T00:48:10;56037.56;;;-142.21;74.28
5053;BME280;2545;50.892;5.740;2023-09-19T00:50:38;56061.09;;;-142.21;73.92
5053;BME280;2545;50.892;5.740;2023-09-19T00:53:07;56072.88;;;-142.21;74.10
5053;BME280;2545;50.892;5.740;2023-09-19T00:55:33;56061.09;;;-142.21;73.75
5053;BME280;2545;50.892;5.740;2023-09-19T00:57:59;56076.78;;;-142.21;73.26
5053;BME280;2545;50.892;5.740;2023-09-19T01:00:25;56068.94;;;-142.21;73.70
5053;BME280;2545;50.892;5.740;2023-09-19T01:02:50;56065.03;;;-142.21;73.57
5053;BME280;2545;50.892;5.740;2023-09-19T01:05:16;56053.25;;;-142.21;73.19
5053;BME280;2545;50.892;5.740;2023-09-19T01:07:42;56063.06;;;-142.21;73.31
5053;BME280;2545;50.892;5.740;2023-09-19T01:10:09;56067.00;;;-142.21;73.05
5053;BME280;2545;50.892;5.740;2023-09-19T01:12:57;56088.56;;;-142.21;72.25
5053;BME280;2545;50.892;5.740;2023-09-19T01:15:42;56063.06;;;-142.21;72.16
5053;BME280;2545;50.892;5.740;2023-09-19T01:18:43;56047.38;;;-142.21;73.01
5053;BME280;2545;50.892;5.740;2023-09-19T01:27:25;56078.75;;;-142.21;71.82
5053;BME280;2545;50.892;5.740;2023-09-19T01:30:08;56086.59;;;-142.21;72.06
5053;BME280;2545;50.892;5.740;2023-09-19T01:32:34;56098.38;;;-142.21;71.67
5053;BME280;2545;50.892;5.740;2023-09-19T01:34:59;56096.41;;;-142.21;71.74
5053;BME280;2545;50.892;5.740;2023-09-19T01:37:30;56059.16;;;-142.21;70.83
5053;BME280;2545;50.892;5.740;2023-09-19T01:40:03;56088.56;;;-142.21;70.54
5053;BME280;2545;50.892;5.740;2023-09-19T01:46:09;56049.34;;;-142.21;71.29
5053;BME280;2545;50.892;5.740;2023-09-19T01:51:09;56094.44;;;-142.21;71.53
5053;BME280;2545;50.892;5.740;2023-09-19T01:53:43;56088.56;;;-142.21;72.05
5053;BME280;2545;50.892;5.740;2023-09-19T01:56:15;56092.47;;;-142.21;72.17
5053;BME280;2545;50.892;5.740;2023-09-19T01:58:46;56068.94;;;-142.21;73.03
5053;BME280;2545;50.892;5.740;2023-09-19T02:01:19;56092.47;;;-142.21;73.31
5053;BME280;2545;50.892;5.740;2023-09-19T02:03:46;56053.25;;;-142.21;73.29
5053;BME280;2545;50.892;5.740;2023-09-19T02:06:16;56061.09;;;-142.21;73.83
5053;BME280;2545;50.892;5.740;2023-09-19T02:08:43;56112.09;;;-142.21;73.96
5053;BME280;2545;50.892;5.740;2023-09-19T02:11:08;56100.31;;;-142.21;73.79
5053;BME280;2545;50.892;5.740;2023-09-19T02:13:34;56041.50;;;-142.21;74.46
5053;BME280;2545;50.892;5.740;2023-09-19T02:15:59;56057.19;;;-142.21;74.32
5053;BME280;2545;50.892;5.740;2023-09-19T02:18:25;56106.22;;;-142.21;74.34
5053;BME280;2545;50.892;5.740;2023-09-19T02:20:53;56092.47;;;-142.21;75.00
5053;BME280;2545;50.892;5.740;2023-09-19T02:23:18;56070.91;;;-142.21;74.95
5053;BME280;2545;50.892;5.740;2023-09-19T02:25:51;56096.41;;;-142.21;74.65
5053;BME280;2545;50.892;5.740;2023-09-19T02:28:17;56047.38;;;-142.21;74.81
5053;BME280;2545;50.892;5.740;2023-09-19T02:30:42;56080.72;;;-142.21;75.06
5053;BME280;2545;50.892;5.740;2023-09-19T02:33:07;56053.25;;;-142.21;74.90
5053;BME280;2545;50.892;5.740;2023-09-19T02:35:33;56080.72;;;-142.21;74.78
5053;BME280;2545;50.892;5.740;2023-09-19T02:38:01;56072.88;;;-142.21;73.88
5053;BME280;2545;50.892;5.740;2023-09-19T02:40:27;56119.94;;;-142.21;74.11
5053;BME280;2545;50.892;5.740;2023-09-19T02:42:54;56078.75;;;-142.21;74.18
5053;BME280;2545;50.892;5.740;2023-09-19T02:45:20;56117.97;;;-142.21;73.87
5053;BME280;2545;50.892;5.740;2023-09-19T02:47:46;56110.13;;;-142.21;74.18
5053;BME280;2545;50.892;5.740;2023-09-19T02:50:13;56104.25;;;-142.21;73.42
5053;BME280;2545;50.892;5.740;2023-09-19T02:52:42;56084.63;;;-142.21;73.63
5053;BME280;2545;50.892;5.740;2023-09-19T02:55:09;56086.59;;;-142.21;73.83
5053;BME280;2545;50.892;5.740;2023-09-19T02:57:35;56068.94;;;-142.21;73.33
5053;BME280;2545;50.892;5.740;2023-09-19T03:00:06;56133.66;;;-142.21;72.51
5053;BME280;2545;50.892;5.740;2023-09-19T03:02:32;56100.31;;;-142.21;72.48
5053;BME280;2545;50.892;5.740;2023-09-19T03:05:00;56084.63;;;-142.21;71.53
5053;BME280;2545;50.892;5.740;2023-09-19T03:07:25;56084.63;;;-142.21;71.48
5053;BME280;2545;50.892;5.740;2023-09-19T03:09:50;56102.28;;;-142.21;71.76
5053;BME280;2545;50.892;5.740;2023-09-19T03:12:17;56074.84;;;-142.21;71.33
5053;BME280;2545;50.892;5.740;2023-09-19T03:14:43;56057.19;;;-142.21;71.12
5053;BME280;2545;50.892;5.740;2023-09-19T03:17:09;56080.72;;;-142.21;70.40
5053;BME280;2545;50.892;5.740;2023-09-19T03:19:34;56070.91;;;-142.21;70.71
5053;BME280;2545;50.892;5.740;2023-09-19T03:22:00;56090.53;;;-142.21;70.17
5053;BME280;2545;50.892;5.740;2023-09-19T03:24:25;56049.34;;;-142.21;69.76
5053;BME280;2545;50.892;5.740;2023-09-19T03:26:51;56110.13;;;-142.21;69.63
5053;BME280;2545;50.892;5.740;2023-09-19T03:29:17;56112.09;;;-142.21;69.41
5053;BME280;2545;50.892;5.740;2023-09-19T03:31:42;56063.06;;;-142.21;69.31
5053;BME280;2545;50.892;5.740;2023-09-19T03:34:08;56070.91;;;-142.21;69.56
5053;BME280;2545;50.892;5.740;2023-09-19T03:36:34;56080.72;;;-142.21;69.63
5053;BME280;2545;50.892;5.740;2023-09-19T03:38:59;56070.91;;;-142.21;69.94
5053;BME280;2545;50.892;5.740;2023-09-19T03:41:24;56090.53;;;-142.21;69.27
5053;BME280;2545;50.892;5.740;2023-09-19T03:43:50;56068.94;;;-142.21;68.99
5053;BME280;2545;50.892;5.740;2023-09-19T03:46:15;56096.41;;;-142.21;69.32
5053;BME280;2545;50.892;5.740;2023-09-19T03:48:40;56057.19;;;-142.21;69.59
5053;BME280;2545;50.892;5.740;2023-09-19T03:51:06;56082.69;;;-142.21;68.89
5053;BME280;2545;50.892;5.740;2023-09-19T03:53:31;56076.78;;;-142.21;68.79
5053;BME280;2545;50.892;5.740;2023-09-19T03:55:57;56074.84;;;-142.21;69.07
5053;BME280;2545;50.892;5.740;2023-09-19T03:58:22;56072.88;;;-142.21;69.11
5053;BME280;2545;50.892;5.740;2023-09-19T04:00:48;56051.31;;;-142.21;68.92
5053;BME280;2545;50.892;5.740;2023-09-19T04:03:14;56092.47;;;-142.21;68.95
5053;BME280;2545;50.892;5.740;2023-09-19T04:05:45;56082.69;;;-142.21;68.94
5053;BME280;2545;50.892;5.740;2023-09-19T04:08:11;56072.88;;;-142.21;68.58
5053;BME280;2545;50.892;5.740;2023-09-19T04:10:36;56037.56;;;-142.21;68.35
5053;BME280;2545;50.892;5.740;2023-09-19T04:13:02;56053.25;;;-142.21;67.65
5053;BME280;2545;50.892;5.740;2023-09-19T04:15:29;56092.47;;;-142.21;68.46
5053;BME280;2545;50.892;5.740;2023-09-19T04:17:54;56088.56;;;-142.21;68.18
5053;BME280;2545;50.892;5.740;2023-09-19T04:20:20;56057.19;;;-142.21;68.88
5053;BME280;2545;50.892;5.740;2023-09-19T04:22:47;56059.16;;;-142.21;68.33
5053;BME280;2545;50.892;5.740;2023-09-19T04:25:13;56070.91;;;-142.21;67.39
5053;BME280;2545;50.892;5.740;2023-09-19T04:27:38;56049.34;;;-142.21;67.90
5053;BME280;2545;50.892;5.740;2023-09-19T04:30:05;56084.63;;;-142.21;67.87
5053;BME280;2545;50.892;5.740;2023-09-19T04:32:35;56112.09;;;-142.21;67.84
5053;BME280;2545;50.892;5.740;2023-09-19T04:35:04;56112.09;;;-142.21;67.62
5053;BME280;2545;50.892;5.740;2023-09-19T04:37:31;56067.00;;;-142.21;67.81
5053;BME280;2545;50.892;5.740;2023-09-19T04:39:56;56094.44;;;-142.21;67.76
5053;BME280;2545;50.892;5.740;2023-09-19T04:42:22;56090.53;;;-142.21;68.86
5053;BME280;2545;50.892;5.740;2023-09-19T04:44:49;56082.69;;;-142.21;68.88
5053;BME280;2545;50.892;5.740;2023-09-19T04:47:15;56068.94;;;-142.21;69.13
5053;BME280;2545;50.892;5.740;2023-09-19T04:49:41;56092.47;;;-142.21;69.68
5053;BME280;2545;50.892;5.740;2023-09-19T04:52:06;56021.88;;;-142.21;69.45
5053;BME280;2545;50.892;5.740;2023-09-19T04:54:32;56070.91;;;-142.21;69.74
5053;BME280;2545;50.892;5.740;2023-09-19T04:56:59;56047.38;;;-142.21;70.41
5053;BME280;2545;50.892;5.740;2023-09-19T04:59:24;56072.88;;;-142.21;70.59
5053;BME280;2545;50.892;5.740;2023-09-19T05:01:49;56061.09;;;-142.21;70.89
5053;BME280;2545;50.892;5.740;2023-09-19T05:04:15;56051.31;;;-142.21;71.39
5053;BME280;2545;50.892;5.740;2023-09-19T05:06:40;56068.94;;;-142.21;71.17
5053;BME280;2545;50.892;5.740;2023-09-19T05:09:06;56086.59;;;-142.21;71.35
5053;BME280;2545;50.892;5.740;2023-09-19T05:11:31;56100.31;;;-142.21;71.32
5053;BME280;2545;50.892;5.740;2023-09-19T05:13:56;56061.09;;;-142.21;72.14
5053;BME280;2545;50.892;5.740;2023-09-19T05:16:22;56070.91;;;-142.21;72.03
5053;BME280;2545;50.892;5.740;2023-09-19T05:18:47;56072.88;;;-142.21;72.53
5053;BME280;2545;50.892;5.740;2023-09-19T05:21:13;56084.63;;;-142.21;72.61
5053;BME280;2545;50.892;5.740;2023-09-19T05:23:38;56117.97;;;-142.21;72.05
5053;BME280;2545;50.892;5.740;2023-09-19T05:26:03;56082.69;;;-142.21;72.60
5053;BME280;2545;50.892;5.740;2023-09-19T05:28:30;56110.13;;;-142.21;72.91
5053;BME280;2545;50.892;5.740;2023-09-19T05:31:00;56055.22;;;-142.21;72.98
5053;BME280;2545;50.892;5.740;2023-09-19T05:33:27;56063.06;;;-142.21;73.58
5053;BME280;2545;50.892;5.740;2023-09-19T05:35:52;56057.19;;;-142.21;73.68
5053;BME280;2545;50.892;5.740;2023-09-19T05:38:18;56068.94;;;-142.21;73.65
5053;BME280;2545;50.892;5.740;2023-09-19T05:40:45;56088.56;;;-142.21;74.12
5053;BME280;2545;50.892;5.740;2023-09-19T05:43:11;56084.63;;;-142.21;74.28
5053;BME280;2545;50.892;5.740;2023-09-19T05:45:37;56112.09;;;-142.21;73.70
5053;BME280;2545;50.892;5.740;2023-09-19T05:48:14;56076.78;;;-142.21;73.86
5053;BME280;2545;50.892;5.740;2023-09-19T05:50:41;56065.03;;;-142.21;73.91
5053;BME280;2545;50.892;5.740;2023-09-19T05:53:06;56063.06;;;-142.21;73.38
5053;BME280;2545;50.892;5.740;2023-09-19T05:55:32;56094.44;;;-142.21;73.72
5053;BME280;2545;50.892;5.740;2023-09-19T05:57:58;56072.88;;;-142.21;73.84
5053;BME280;2545;50.892;5.740;2023-09-19T06:00:25;56067.00;;;-142.21;74.13
5053;BME280;2545;50.892;5.740;2023-09-19T06:02:53;56108.16;;;-142.21;73.72
5053;BME280;2545;50.892;5.740;2023-09-19T06:05:19;56059.16;;;-142.21;73.97
5053;BME280;2545;50.892;5.740;2023-09-19T06:07:45;56094.44;;;-142.21;73.52
5053;BME280;2545;50.892;5.740;2023-09-19T06:10:12;56086.59;;;-142.21;73.27
5053;BME280;2545;50.892;5.740;2023-09-19T06:12:44;56084.63;;;-142.21;73.23
5053;BME280;2545;50.892;5.740;2023-09-19T06:15:10;56080.72;;;-142.21;73.58
5053;BME280;2545;50.892;5.740;2023-09-19T06:17:46;56072.88;;;-142.21;73.29
5053;BME280;2545;50.892;5.740;2023-09-19T06:20:12;56119.94;;;-142.21;73.06
5053;BME280;2545;50.892;5.740;2023-09-19T06:22:41;56068.94;;;-142.21;73.36
5053;BME280;2545;50.892;5.740;2023-09-19T06:25:07;56084.63;;;-142.21;73.01
5053;BME280;2545;50.892;5.740;2023-09-19T06:27:33;56065.03;;;-142.21;72.42
5053;BME280;2545;50.892;5.740;2023-09-19T06:29:58;56092.47;;;-142.21;72.71
5053;BME280;2545;50.892;5.740;2023-09-19T06:32:27;56053.25;;;-142.21;72.84
5053;BME280;2545;50.892;5.740;2023-09-19T06:34:52;56061.09;;;-142.21;72.26
5053;BME280;2545;50.892;5.740;2023-09-19T06:37:20;56098.38;;;-142.21;71.95
5053;BME280;2545;50.892;5.740;2023-09-19T06:39:46;56084.63;;;-142.21;71.51
5053;BME280;2545;50.892;5.740;2023-09-19T06:42:13;56076.78;;;-142.21;71.87
5053;BME280;2545;50.892;5.740;2023-09-19T06:44:38;56059.16;;;-142.21;72.31
5053;BME280;2545;50.892;5.740;2023-09-19T06:47:04;56096.41;;;-142.21;71.55
5053;BME280;2545;50.892;5.740;2023-09-19T06:49:30;56051.31;;;-142.21;71.67
5053;BME280;2545;50.892;5.740;2023-09-19T06:51:56;56070.91;;;-142.21;70.71
5053;BME280;2545;50.892;5.740;2023-09-19T06:54:22;56076.78;;;-142.21;70.82
5053;BME280;2545;50.892;5.740;2023-09-19T06:56:47;56076.78;;;-142.21;70.45
5053;BME280;2545;50.892;5.740;2023-09-19T06:59:13;56094.44;;;-142.21;69.96
5053;BME280;2545;50.892;5.740;2023-09-19T07:01:40;56063.06;;;-142.21;70.23
5053;BME280;2545;50.892;5.740;2023-09-19T07:04:06;56106.22;;;-142.21;70.71
5053;BME280;2545;50.892;5.740;2023-09-19T07:06:31;56080.72;;;-142.21;70.30
5053;BME280;2545;50.892;5.740;2023-09-19T07:08:57;56067.00;;;-142.21;70.29
5053;BME280;2545;50.892;5.740;2023-09-19T07:11:22;56096.41;;;-142.21;70.32
5053;BME280;2545;50.892;5.740;2023-09-19T07:13:48;56072.88;;;-142.21;70.05
5053;BME280;2545;50.892;5.740;2023-09-19T07:16:14;56055.22;;;-142.21;69.23
5053;BME280;2545;50.892;5.740;2023-09-19T07:18:52;56094.44;;;-142.21;68.81
5053;BME280;2545;50.892;5.740;2023-09-19T07:21:18;56080.72;;;-142.21;67.71
5053;BME280;2545;50.892;5.740;2023-09-19T07:23:43;56051.31;;;-142.21;68.10
5053;BME280;2545;50.892;5.740;2023-09-19T07:26:08;56055.22;;;-142.21;67.53
5053;BME280;2545;50.892;5.740;2023-09-19T07:28:34;56104.25;;;-142.21;67.12
5053;BME280;2545;50.892;5.740;2023-09-19T07:31:04;56076.78;;;-142.21;67.92
5053;BME280;2545;50.892;5.740;2023-09-19T07:33:30;56061.09;;;-142.21;68.06
5053;BME280;2545;50.892;5.740;2023-09-19T07:35:56;56072.88;;;-142.21;66.45
5053;BME280;2545;50.892;5.740;2023-09-19T07:38:21;56045.41;;;-142.21;66.71
5053;BME280;2545;50.892;5.740;2023-09-19T07:40:47;56065.03;;;-142.21;65.79
5053;BME280;2545;50.892;5.740;2023-09-19T07:43:13;56051.31;;;-142.21;66.06
5053;BME280;2545;50.892;5.740;2023-09-19T07:45:40;56072.88;;;-142.21;66.40
5053;BME280;2545;50.892;5.740;2023-09-19T07:48:05;56047.38;;;-142.21;66.01
5053;BME280;2545;50.892;5.740;2023-09-19T07:50:33;56094.44;;;-142.21;65.71
5053;BME280;2545;50.892;5.740;2023-09-19T07:53:01;56045.41;;;-142.21;65.62
5053;BME280;2545;50.892;5.740;2023-09-19T07:55:30;56057.19;;;-142.21;65.62
5053;BME280;2545;50.892;5.740;2023-09-19T07:57:55;56088.56;;;-142.21;65.37
5053;BME280;2545;50.892;5.740;2023-09-19T08:00:20;56057.19;;;-142.21;65.48
5053;BME280;2545;50.892;5.740;2023-09-19T08:02:46;56072.88;;;-142.21;64.48
5053;BME280;2545;50.892;5.740;2023-09-19T08:05:13;56080.72;;;-142.21;64.35
5053;BME280;2545;50.892;5.740;2023-09-19T08:07:43;56049.34;;;-142.21;65.03
5053;BME280;2545;50.892;5.740;2023-09-19T08:10:09;56065.03;;;-142.21;64.45
5053;BME280;2545;50.892;5.740;2023-09-19T08:12:42;56082.69;;;-142.21;63.47
5053;BME280;2545;50.892;5.740;2023-09-19T08:15:19;56100.31;;;-142.21;63.83
5053;BME280;2545;50.892;5.740;2023-09-19T08:17:45;56039.53;;;-142.21;63.45
5053;BME280;2545;50.892;5.740;2023-09-19T08:20:10;56059.16;;;-142.21;62.70
5053;BME280;2545;50.892;5.740;2023-09-19T08:22:43;56051.31;;;-142.21;61.33
5053;BME280;2545;50.892;5.740;2023-09-19T08:25:09;56049.34;;;-142.21;62.08
5053;BME280;2545;50.892;5.740;2023-09-19T08:27:34;56065.03;;;-142.21;61.87
5053;BME280;2545;50.892;5.740;2023-09-19T08:30:01;56057.19;;;-142.21;61.93
5053;BME280;2545;50.892;5.740;2023-09-19T08:32:28;56072.88;;;-142.21;61.90
5053;BME280;2545;50.892;5.740;2023-09-19T08:34:53;56065.03;;;-142.21;61.97
5053;BME280;2545;50.892;5.740;2023-09-19T08:37:19;56045.41;;;-142.21;62.78
5053;BME280;2545;50.892;5.740;2023-09-19T08:39:44;56063.06;;;-142.21;61.30
5053;BME280;2545;50.892;5.740;2023-09-19T08:42:10;56049.34;;;-142.21;61.40
5053;BME280;2545;50.892;5.740;2023-09-19T08:44:37;56057.19;;;-142.21;61.00
5053;BME280;2545;50.892;5.740;2023-09-19T08:47:14;56053.25;;;-142.21;60.63
5053;BME280;2545;50.892;5.740;2023-09-19T08:52:34;56031.69;;;-142.21;60.11
5053;BME280;2545;50.892;5.740;2023-09-19T08:55:02;56090.53;;;-142.21;59.68
5053;BME280;2545;50.892;5.740;2023-09-19T08:57:33;56080.72;;;-142.21;60.47
5053;BME280;2545;50.892;5.740;2023-09-19T09:00:02;56037.56;;;-142.21;60.41
5053;BME280;2545;50.892;5.740;2023-09-19T09:02:31;56059.16;;;-142.21;60.64
5053;BME280;2545;50.892;5.740;2023-09-19T09:04:59;56039.53;;;-142.21;60.10
5053;BME280;2545;50.892;5.740;2023-09-19T09:07:25;56043.47;;;-142.21;59.79
5053;BME280;2545;50.892;5.740;2023-09-19T09:09:52;56072.88;;;-142.21;59.14
5053;BME280;2545;50.892;5.740;2023-09-19T09:12:18;56041.50;;;-142.21;60.32
5053;BME280;2545;50.892;5.740;2023-09-19T09:14:47;56067.00;;;-142.21;59.21
5053;BME280;2545;50.892;5.740;2023-09-19T09:17:14;56033.66;;;-142.21;59.06
5053;BME280;2545;50.892;5.740;2023-09-19T09:19:39;56043.47;;;-142.21;57.89
5053;BME280;2545;50.892;5.740;2023-09-19T09:22:11;56045.41;;;-142.21;57.96
5053;BME280;2545;50.892;5.740;2023-09-19T09:24:37;56017.97;;;-142.21;56.61
5053;BME280;2545;50.892;5.740;2023-09-19T09:27:05;56049.34;;;-142.21;57.46
5053;BME280;2545;50.892;5.740;2023-09-19T09:29:48;56074.84;;;-142.21;57.23
5053;BME280;2545;50.892;5.740;2023-09-19T09:34:56;56065.03;;;-142.21;56.68
5053;BME280;2545;50.892;5.740;2023-09-19T09:37:23;56033.66;;;-142.21;56.58
5053;BME280;2545;50.892;5.740;2023-09-19T09:42:30;56031.69;;;-142.21;56.00
5053;BME280;2545;50.892;5.740;2023-09-19T09:45:13;56031.69;;;-142.21;54.72
5053;BME280;2545;50.892;5.740;2023-09-19T09:47:45;56043.47;;;-142.21;54.03
5053;BME280;2545;50.892;5.740;2023-09-19T09:50:33;56012.09;;;-142.21;52.20
5053;BME280;2545;50.892;5.740;2023-09-19T09:53:26;56025.81;;;-142.21;52.86
5053;BME280;2545;50.892;5.740;2023-09-19T09:56:06;56035.63;;;-142.21;51.13
5053;BME280;2545;50.892;5.740;2023-09-19T09:58:34;56012.09;;;-142.21;50.41
5053;BME280;2545;50.892;5.740;2023-09-19T10:01:01;56016.00;;;-142.21;49.17
5053;BME280;2545;50.892;5.740;2023-09-19T10:03:45;56047.38;;;-142.21;50.65
5053;BME280;2545;50.892;5.740;2023-09-19T10:06:16;56067.00;;;-142.21;50.47
5053;BME280;2545;50.892;5.740;2023-09-19T10:09:17;56016.00;;;-142.21;49.85
5053;BME280;2545;50.892;5.740;2023-09-19T10:12:00;56043.47;;;-142.21;50.26
5053;BME280;2545;50.892;5.740;2023-09-19T10:14:30;56021.88;;;-142.21;49.64
5053;BME280;2545;50.892;5.740;2023-09-19T10:16:58;56025.81;;;-142.21;49.03
5053;BME280;2545;50.892;5.740;2023-09-19T10:19:33;56006.22;;;-142.21;47.48
5053;BME280;2545;50.892;5.740;2023-09-19T10:22:02;56012.09;;;-142.21;48.61
5053;BME280;2545;50.892;5.740;2023-09-19T10:24:28;56017.97;;;-142.21;47.75
5053;BME280;2545;50.892;5.740;2023-09-19T10:26:56;56043.47;;;-142.21;49.07
5053;BME280;2545;50.892;5.740;2023-09-19T10:29:24;56037.56;;;-142.21;48.49
5053;BME280;2545;50.892;5.740;2023-09-19T10:31:54;56035.63;;;-142.21;49.42
5053;BME280;2545;50.892;5.740;2023-09-19T10:34:23;56006.22;;;-142.21;48.80
5053;BME280;2545;50.892;5.740;2023-09-19T10:36:50;56019.94;;;-142.21;47.93
5053;BME280;2545;50.892;5.740;2023-09-19T10:39:16;55990.53;;;-142.21;47.06
5053;BME280;2545;50.892;5.740;2023-09-19T10:41:51;56008.16;;;-142.21;48.23
5053;BME280;2545;50.892;5.740;2023-09-19T10:44:22;56010.13;;;-142.21;49.35
5053;BME280;2545;50.892;5.740;2023-09-19T10:46:49;56017.97;;;-142.21;50.04
5053;BME280;2545;50.892;5.740;2023-09-19T10:49:14;55994.44;;;-142.21;49.17
5053;BME280;2545;50.892;5.740;2023-09-19T10:51:41;55998.38;;;-142.21;46.90
5053;BME280;2545;50.892;5.740;2023-09-19T10:54:12;56012.09;;;-142.21;45.99
5053;BME280;2545;50.892;5.740;2023-09-19T10:56:42;56033.66;;;-142.21;47.16
5053;BME280;2545;50.892;5.740;2023-09-19T10:59:11;55994.44;;;-142.21;46.40
5053;BME280;2545;50.892;5.740;2023-09-19T11:01:51;56014.06;;;-142.21;46.56
5053;BME280;2545;50.892;5.740;2023-09-19T11:04:31;56006.22;;;-142.21;44.67
5053;BME280;2545;50.892;5.740;2023-09-19T11:07:10;55996.41;;;-142.21;44.65
5053;BME280;2545;50.892;5.740;2023-09-19T11:09:56;55990.53;;;-142.21;44.70
5053;BME280;2545;50.892;5.740;2023-09-19T11:14:56;56008.16;;;-142.21;43.04
5053;BME280;2545;50.892;5.740;2023-09-19T11:17:34;55998.38;;;-142.21;43.24
5053;BME280;2545;50.892;5.740;2023-09-19T11:25:42;55972.88;;;-142.21;42.00
5053;BME280;2545;50.892;5.740;2023-09-19T11:30:46;55992.47;;;-142.21;40.98
5053;BME280;2545;50.892;5.740;2023-09-19T11:49:16;55963.06;;;-142.21;39.75
5053;BME280;2545;50.892;5.740;2023-09-19T11:51:45;55961.09;;;-142.21;39.53
5053;BME280;2545;50.892;5.740;2023-09-19T11:54:13;55967.00;;;-142.21;40.68
5053;BME280;2545;50.892;5.740;2023-09-19T11:56:44;55967.00;;;-142.21;40.93
5053;BME280;2545;50.892;5.740;2023-09-19T11:59:11;55982.69;;;-142.21;39.75
5053;BME280;2545;50.892;5.740;2023-09-19T12:01:38;55963.06;;;-142.21;37.42
5053;BME280;2545;50.892;5.740;2023-09-19T12:04:11;55961.09;;;-142.21;39.28
5053;BME280;2545;50.892;5.740;2023-09-19T12:06:37;55978.75;;;-142.21;38.75
5053;BME280;2545;50.892;5.740;2023-09-19T12:09:04;55974.84;;;-142.21;38.27
5053;BME280;2545;50.892;5.740;2023-09-19T12:11:32;55963.06;;;-142.21;38.50
5053;BME280;2545;50.892;5.740;2023-09-19T12:13:58;55963.06;;;-142.21;39.32
5053;BME280;2545;50.892;5.740;2023-09-19T12:16:26;55965.03;;;-142.21;39.87
5053;BME280;2545;50.892;5.740;2023-09-19T12:18:55;56014.06;;;-142.21;39.96
5053;BME280;2545;50.892;5.740;2023-09-19T12:21:26;55955.22;;;-142.21;40.10
5053;BME280;2545;50.892;5.740;2023-09-19T12:24:14;55978.75;;;-142.21;38.89
5053;BME280;2545;50.892;5.740;2023-09-19T12:26:45;55943.47;;;-142.21;38.85
5053;BME280;2545;50.892;5.740;2023-09-19T12:29:17;55967.00;;;-142.21;37.86
5053;BME280;2545;50.892;5.740;2023-09-19T12:31:59;55978.75;;;-142.21;36.27
5053;BME280;2545;50.892;5.740;2023-09-19T12:34:26;55974.84;;;-142.21;38.60
5053;BME280;2545;50.892;5.740;2023-09-19T12:37:14;55986.59;;;-142.21;39.69
5053;BME280;2545;50.892;5.740;2023-09-19T12:40:07;55927.78;;;-142.21;38.49
5053;BME280;2545;50.892;5.740;2023-09-19T12:42:48;55953.25;;;-142.21;40.18
5053;BME280;2545;50.892;5.740;2023-09-19T12:45:14;55955.22;;;-142.21;41.15
5053;BME280;2545;50.892;5.740;2023-09-19T12:48:22;55990.53;;;-142.21;42.18
5053;BME280;2545;50.892;5.740;2023-09-19T12:51:08;56002.28;;;-142.21;41.90
5053;BME280;2545;50.892;5.740;2023-09-19T12:53:38;55974.84;;;-142.21;43.08
5053;BME280;2545;50.892;5.740;2023-09-19T12:56:08;56021.88;;;-142.21;44.49
5053;BME280;2545;50.892;5.740;2023-09-19T13:01:16;56012.09;;;-142.21;44.77
5053;BME280;2545;50.892;5.740;2023-09-19T13:03:42;56035.63;;;-142.21;46.04
5053;BME280;2545;50.892;5.740;2023-09-19T13:06:07;56031.69;;;-142.21;45.67
5053;BME280;2545;50.892;5.740;2023-09-19T13:08:37;56006.22;;;-142.21;45.79
5053;BME280;2545;50.892;5.740;2023-09-19T13:13:39;56006.22;;;-142.21;46.03
5053;BME280;2545;50.892;5.740;2023-09-19T13:16:05;56014.06;;;-142.21;47.10
5053;BME280;2545;50.892;5.740;2023-09-19T13:18:42;56045.41;;;-142.21;46.48
5053;BME280;2545;50.892;5.740;2023-09-19T13:21:14;56016.00;;;-142.21;45.50
5053;BME280;2545;50.892;5.740;2023-09-19T13:23:50;56045.41;;;-142.21;45.63
5053;BME280;2545;50.892;5.740;2023-09-19T13:26:15;56021.88;;;-142.21;45.05
5053;BME280;2545;50.892;5.740;2023-09-19T13:28:41;55955.22;;;-142.21;41.86
5053;BME280;2545;50.892;5.740;2023-09-19T13:31:06;55965.03;;;-142.21;40.88
5053;BME280;2545;50.892;5.740;2023-09-19T13:33:33;55949.34;;;-142.21;40.31
5053;BME280;2545;50.892;5.740;2023-09-19T13:35:59;55972.88;;;-142.21;41.90
5053;BME280;2545;50.892;5.740;2023-09-19T13:38:24;55970.91;;;-142.21;41.79
5053;BME280;2545;50.892;5.740;2023-09-19T13:40:49;55986.59;;;-142.21;43.78
5053;BME280;2545;50.892;5.740;2023-09-19T13:43:17;55992.47;;;-142.21;43.09
5053;BME280;2545;50.892;5.740;2023-09-19T13:45:43;55992.47;;;-142.21;43.50
5053;BME280;2545;50.892;5.740;2023-09-19T13:48:08;56029.72;;;-142.21;45.35
5053;BME280;2545;50.892;5.740;2023-09-19T13:50:37;56021.88;;;-142.21;45.88
5053;BME280;2545;50.892;5.740;2023-09-19T13:53:07;56065.03;;;-142.21;45.99
5053;BME280;2545;50.892;5.740;2023-09-19T13:55:33;56000.31;;;-142.21;47.04
5053;BME280;2545;50.892;5.740;2023-09-19T13:57:58;55982.69;;;-142.21;46.20
5053;BME280;2545;50.892;5.740;2023-09-19T14:00:24;56012.09;;;-142.21;45.98